createdAt,value
2022-10-02T00:00:09.959Z,2
2022-10-02T00:00:39.461Z,2
2022-10-02T00:01:07.395Z,2
2022-10-02T00:01:39.566Z,2
2022-10-02T00:02:09.740Z,2
2022-10-02T00:02:40.356Z,2
2022-10-02T00:03:11.249Z,2
2022-10-02T00:03:42.156Z,2
2022-10-02T00:04:13.208Z,2
2022-10-02T00:04:44.237Z,2
2022-10-02T00:05:15.479Z,2
2022-10-02T00:05:46.332Z,1
2022-10-02T00:06:17.326Z,2
2022-10-02T00:06:49.546Z,2
2022-10-02T00:07:19.989Z,2
2022-10-02T00:07:51.553Z,2
2022-10-02T00:09:52.349Z,2
2022-10-02T00:10:59.930Z,2
2022-10-02T00:11:28.864Z,2
2022-10-02T00:12:30.400Z,2
2022-10-02T00:13:00.664Z,2
2022-10-02T00:13:31.616Z,2
2022-10-02T00:14:02.433Z,3
2022-10-02T00:14:34.287Z,3
2022-10-02T00:15:14.139Z,2
2022-10-02T00:15:35.547Z,2
2022-10-02T00:16:07.978Z,2
2022-10-02T00:16:39.574Z,2
2022-10-02T00:17:09.535Z,2
2022-10-02T00:17:40.555Z,2
2022-10-02T00:18:11.640Z,2
2022-10-02T00:18:43.529Z,2
2022-10-02T00:19:12.547Z,2
2022-10-02T00:19:43.944Z,3
2022-10-02T00:20:14.655Z,2
2022-10-02T00:20:46.227Z,3
2022-10-02T00:21:17.467Z,2
2022-10-02T00:21:49.181Z,2
2022-10-02T00:22:19.869Z,2
2022-10-02T00:22:49.974Z,2
2022-10-02T00:23:22.823Z,2
2022-10-02T00:23:54.951Z,3
2022-10-02T00:24:24.657Z,3
2022-10-02T00:24:54.488Z,2
2022-10-02T00:25:25.372Z,2
2022-10-02T00:26:03.570Z,3
2022-10-02T00:26:27.877Z,2
2022-10-02T00:27:05.794Z,3
2022-10-02T00:27:29.570Z,3
2022-10-02T00:28:00.023Z,3
2022-10-02T00:28:30.957Z,3
2022-10-02T00:29:02.336Z,2
2022-10-02T00:29:32.400Z,3
2022-10-02T00:30:06.001Z,2
2022-10-02T00:30:35.229Z,2
2022-10-02T00:31:05.788Z,2
2022-10-02T00:31:40.374Z,2
2022-10-02T00:32:09.617Z,2
2022-10-02T00:32:39.848Z,2
2022-10-02T00:33:29.478Z,2
2022-10-02T00:33:40.770Z,2
2022-10-02T00:34:15.181Z,2
2022-10-02T00:34:42.766Z,2
2022-10-02T00:35:14.755Z,2
2022-10-02T00:35:49.396Z,2
2022-10-02T00:36:15.562Z,2
2022-10-02T00:36:46.816Z,2
2022-10-02T00:37:19.158Z,2
2022-10-02T00:37:49.645Z,2
2022-10-02T00:38:20.190Z,2
2022-10-02T00:38:50.684Z,1
2022-10-02T00:39:21.837Z,354
2022-10-02T00:39:52.507Z,355
2022-10-02T00:40:24.972Z,355
2022-10-02T00:40:57.100Z,355
2022-10-02T00:41:25.542Z,355
2022-10-02T00:41:56.786Z,0
2022-10-02T00:42:29.400Z,0
2022-10-02T00:42:59.444Z,0
2022-10-02T00:43:31.101Z,0
2022-10-02T00:44:00.964Z,358
2022-10-02T00:44:39.154Z,358
2022-10-02T00:45:03.022Z,358
2022-10-02T00:45:33.779Z,359
2022-10-02T00:46:05.410Z,358
2022-10-02T00:46:35.428Z,358
2022-10-02T00:47:06.825Z,13
2022-10-02T00:47:38.669Z,340
2022-10-02T00:48:09.550Z,355
2022-10-02T00:48:39.971Z,355
2022-10-02T00:49:10.443Z,341
2022-10-02T00:49:41.539Z,349
2022-10-02T00:50:13.111Z,352
2022-10-02T00:50:43.782Z,352
2022-10-02T00:51:14.448Z,351
2022-10-02T00:51:45.402Z,350
2022-10-02T00:52:16.540Z,350
2022-10-02T00:52:48.750Z,351
2022-10-02T00:53:19.659Z,351
2022-10-02T00:53:49.996Z,351
2022-10-02T00:54:20.386Z,350
2022-10-02T00:54:51.296Z,350
2022-10-02T00:55:22.342Z,3
2022-10-02T00:55:53.397Z,4
2022-10-02T00:56:24.482Z,4
2022-10-02T00:56:58.456Z,3
2022-10-02T00:57:26.231Z,3
2022-10-02T00:57:59.446Z,3
2022-10-02T00:58:29.815Z,323
2022-10-02T00:58:59.958Z,347
2022-10-02T00:59:30.503Z,354
2022-10-02T01:00:02.312Z,358
2022-10-02T01:00:36.634Z,333
2022-10-02T01:01:06.337Z,355
2022-10-02T01:01:34.751Z,356
2022-10-02T01:02:05.541Z,355
2022-10-02T01:02:48.272Z,355
2022-10-02T01:03:26.340Z,352
2022-10-02T01:03:59.608Z,353
2022-10-02T01:04:29.575Z,352
2022-10-02T01:05:00.287Z,351
2022-10-02T01:05:30.733Z,352
2022-10-02T01:06:32.587Z,347
2022-10-02T01:07:20.866Z,354
2022-10-02T01:07:34.702Z,352
2022-10-02T01:08:05.559Z,352
2022-10-02T01:08:36.408Z,346
2022-10-02T01:09:08.132Z,350
2022-10-02T01:09:40.019Z,351
2022-10-02T01:10:10.703Z,350
2022-10-02T01:10:40.659Z,352
2022-10-02T01:11:11.793Z,342
2022-10-02T01:11:42.394Z,346
2022-10-02T01:12:13.521Z,347
2022-10-02T01:12:44.535Z,337
2022-10-02T01:13:15.615Z,343
2022-10-02T01:13:50.088Z,348
2022-10-02T01:14:18.639Z,344
2022-10-02T01:14:49.859Z,346
2022-10-02T01:15:20.683Z,344
2022-10-02T01:15:50.676Z,312
2022-10-02T01:16:40.179Z,343
2022-10-02T01:16:52.800Z,343
2022-10-02T01:17:23.586Z,344
2022-10-02T01:17:55.352Z,349
2022-10-02T01:18:25.402Z,354
2022-10-02T01:18:56.852Z,351
2022-10-02T01:19:28.527Z,353
2022-10-02T01:19:58.685Z,345
2022-10-02T01:20:30.573Z,345
2022-10-02T01:21:17.158Z,331
2022-10-02T01:21:31.457Z,331
2022-10-02T01:22:02.536Z,344
2022-10-02T01:22:33.611Z,325
2022-10-02T01:23:04.640Z,344
2022-10-02T01:23:35.883Z,356
2022-10-02T01:24:06.641Z,355
2022-10-02T01:24:38.057Z,344
2022-10-02T01:25:10.157Z,342
2022-10-02T01:25:40.282Z,344
2022-10-02T01:26:10.699Z,325
2022-10-02T01:26:41.396Z,350
2022-10-02T01:27:12.347Z,349
2022-10-02T01:27:43.571Z,344
2022-10-02T01:28:14.934Z,350
2022-10-02T01:28:45.681Z,356
2022-10-02T01:29:16.657Z,354
2022-10-02T01:29:48.392Z,353
2022-10-02T01:30:21.776Z,349
2022-10-02T01:30:50.797Z,331
2022-10-02T01:31:20.962Z,353
2022-10-02T01:31:51.597Z,342
2022-10-02T01:32:22.484Z,1
2022-10-02T01:32:53.970Z,5
2022-10-02T01:33:24.626Z,355
2022-10-02T01:33:55.603Z,328
2022-10-02T01:34:26.751Z,321
2022-10-02T01:35:01.277Z,321
2022-10-02T01:35:30.156Z,280
2022-10-02T01:36:00.600Z,333
2022-10-02T01:36:31.132Z,301
2022-10-02T01:37:01.883Z,353
2022-10-02T01:37:33.371Z,326
2022-10-02T01:38:03.882Z,300
2022-10-02T01:38:34.696Z,336
2022-10-02T01:39:05.423Z,333
2022-10-02T01:39:36.747Z,319
2022-10-02T01:40:08.285Z,335
2022-10-02T01:40:38.589Z,324
2022-10-02T01:41:10.415Z,333
2022-10-02T01:41:41.024Z,279
2022-10-02T01:42:14.781Z,342
2022-10-02T01:42:43.565Z,324
2022-10-02T01:43:13.724Z,317
2022-10-02T01:43:44.657Z,353
2022-10-02T01:44:15.534Z,347
2022-10-02T01:44:46.772Z,346
2022-10-02T01:45:19.014Z,348
2022-10-02T01:45:50.039Z,357
2022-10-02T01:46:20.715Z,335
2022-10-02T01:46:51.041Z,338
2022-10-02T01:47:21.502Z,349
2022-10-02T01:47:52.870Z,7
2022-10-02T01:48:23.546Z,326
2022-10-02T01:48:54.800Z,349
2022-10-02T01:49:26.888Z,349
2022-10-02T01:49:56.716Z,355
2022-10-02T01:51:00.305Z,316
2022-10-02T01:51:30.776Z,330
2022-10-02T01:52:01.058Z,344
2022-10-02T01:52:31.543Z,321
2022-10-02T01:53:02.766Z,330
2022-10-02T01:53:33.696Z,351
2022-10-02T01:54:04.827Z,351
2022-10-02T01:54:35.966Z,354
2022-10-02T01:55:06.927Z,353
2022-10-02T01:55:40.785Z,352
2022-10-02T01:56:09.872Z,351
2022-10-02T01:56:41.049Z,348
2022-10-02T01:57:11.298Z,349
2022-10-02T01:57:41.927Z,351
2022-10-02T01:58:12.663Z,343
2022-10-02T01:58:43.788Z,3
2022-10-02T01:59:14.769Z,357
2022-10-02T01:59:45.551Z,352
2022-10-02T02:00:17.401Z,342
2022-10-02T02:00:50.554Z,349
2022-10-02T02:01:20.886Z,323
2022-10-02T02:01:50.930Z,305
2022-10-02T02:02:21.254Z,320
2022-10-02T02:03:10.598Z,344
2022-10-02T02:03:22.956Z,344
2022-10-02T02:03:53.624Z,339
2022-10-02T02:04:24.908Z,348
2022-10-02T02:04:55.848Z,340
2022-10-02T02:05:26.957Z,347
2022-10-02T02:05:57.636Z,344
2022-10-02T02:06:30.621Z,354
2022-10-02T02:07:00.858Z,337
2022-10-02T02:07:33.805Z,348
2022-10-02T02:08:01.947Z,348
2022-10-02T02:08:35.649Z,334
2022-10-02T02:09:03.841Z,341
2022-10-02T02:09:34.652Z,348
2022-10-02T02:10:06.445Z,345
2022-10-02T02:10:37.085Z,350
2022-10-02T02:11:08.817Z,316
2022-10-02T02:11:40.542Z,347
2022-10-02T02:12:11.223Z,346
2022-10-02T02:12:41.104Z,1
2022-10-02T02:13:12.303Z,354
2022-10-02T02:13:42.782Z,319
2022-10-02T02:14:13.834Z,299
2022-10-02T02:14:44.706Z,346
2022-10-02T02:15:16.633Z,346
2022-10-02T02:15:46.893Z,350
2022-10-02T02:16:17.830Z,351
2022-10-02T02:16:48.760Z,354
2022-10-02T02:17:21.363Z,358
2022-10-02T02:17:51.268Z,356
2022-10-02T02:18:21.902Z,354
2022-10-02T02:18:52.786Z,314
2022-10-02T02:19:23.819Z,349
2022-10-02T02:19:54.751Z,349
2022-10-02T02:20:31.019Z,2
2022-10-02T02:20:57.669Z,354
2022-10-02T02:21:27.867Z,354
2022-10-02T02:21:59.839Z,2
2022-10-02T02:22:36.497Z,349
2022-10-02T02:23:01.578Z,348
2022-10-02T02:23:32.420Z,338
2022-10-02T02:24:11.569Z,346
2022-10-02T02:24:38.979Z,350
2022-10-02T02:25:05.456Z,349
2022-10-02T02:25:39.943Z,351
2022-10-02T02:26:12.447Z,0
2022-10-02T02:26:38.113Z,0
2022-10-02T02:27:11.391Z,354
2022-10-02T02:27:43.146Z,343
2022-10-02T02:28:12.294Z,346
2022-10-02T02:28:42.819Z,353
2022-10-02T02:29:13.336Z,348
2022-10-02T02:30:15.884Z,338
2022-10-02T02:30:50.986Z,348
2022-10-02T02:31:16.985Z,350
2022-10-02T02:31:48.193Z,345
2022-10-02T02:32:25.552Z,354
2022-10-02T02:32:51.261Z,359
2022-10-02T02:33:21.835Z,336
2022-10-02T02:33:51.969Z,328
2022-10-02T02:34:22.980Z,331
2022-10-02T02:34:54.045Z,357
2022-10-02T02:35:25.214Z,351
2022-10-02T02:35:55.762Z,343
2022-10-02T02:36:26.786Z,350
2022-10-02T02:36:57.914Z,344
2022-10-02T02:37:29.216Z,314
2022-10-02T02:38:01.531Z,348
2022-10-02T02:38:32.710Z,340
2022-10-02T02:39:07.077Z,327
2022-10-02T02:39:33.072Z,338
2022-10-02T02:40:04.721Z,349
2022-10-02T02:40:35.254Z,319
2022-10-02T02:41:06.060Z,349
2022-10-02T02:42:08.456Z,288
2022-10-02T02:42:38.826Z,355
2022-10-02T02:43:11.769Z,350
2022-10-02T02:43:41.845Z,328
2022-10-02T02:44:12.479Z,338
2022-10-02T02:44:42.984Z,356
2022-10-02T02:45:14.747Z,340
2022-10-02T02:45:45.475Z,350
2022-10-02T02:46:15.824Z,321
2022-10-02T02:46:46.785Z,344
2022-10-02T02:47:17.862Z,351
2022-10-02T02:47:51.549Z,352
2022-10-02T02:48:21.645Z,332
2022-10-02T02:48:51.852Z,340
2022-10-02T02:49:22.070Z,336
2022-10-02T02:49:53.018Z,358
2022-10-02T02:50:28.932Z,326
2022-10-02T02:50:55.143Z,5
2022-10-02T02:51:25.945Z,359
2022-10-02T02:51:56.837Z,351
2022-10-02T02:52:28.316Z,3
2022-10-02T02:52:59.152Z,321
2022-10-02T02:53:32.044Z,13
2022-10-02T02:54:01.950Z,323
2022-10-02T02:54:32.610Z,357
2022-10-02T02:55:18.485Z,303
2022-10-02T02:55:34.136Z,24
2022-10-02T02:56:36.116Z,17
2022-10-02T02:57:07.381Z,345
2022-10-02T02:57:38.074Z,0
2022-10-02T02:58:09.867Z,1
2022-10-02T02:58:41.875Z,351
2022-10-02T02:59:44.892Z,358
2022-10-02T03:00:24.552Z,358
2022-10-02T03:00:44.174Z,358
2022-10-02T03:01:15.757Z,1
2022-10-02T03:01:45.992Z,342
2022-10-02T03:02:16.939Z,356
2022-10-02T03:02:48.115Z,342
2022-10-02T03:03:19.570Z,354
2022-10-02T03:03:51.564Z,347
2022-10-02T03:04:21.716Z,350
2022-10-02T03:04:52.464Z,345
2022-10-02T03:05:28.447Z,354
2022-10-02T03:05:53.859Z,0
2022-10-02T03:06:25.181Z,356
2022-10-02T03:06:56.146Z,353
2022-10-02T03:07:26.887Z,353
2022-10-02T03:07:58.182Z,353
2022-10-02T03:08:29.584Z,353
2022-10-02T03:09:02.009Z,352
2022-10-02T03:09:32.309Z,352
2022-10-02T03:10:05.085Z,353
2022-10-02T03:10:33.120Z,351
2022-10-02T03:11:04.079Z,353
2022-10-02T03:11:35.164Z,346
2022-10-02T03:12:06.077Z,351
2022-10-02T03:13:08.041Z,0
2022-10-02T03:13:38.919Z,2
2022-10-02T03:14:12.057Z,249
2022-10-02T03:14:41.994Z,325
2022-10-02T03:15:12.693Z,353
2022-10-02T03:15:43.107Z,355
2022-10-02T03:16:14.145Z,351
2022-10-02T03:16:45.317Z,345
2022-10-02T03:17:16.222Z,350
2022-10-02T03:17:46.908Z,351
2022-10-02T03:18:18.164Z,358
2022-10-02T03:18:48.922Z,354
2022-10-02T03:19:21.874Z,344
2022-10-02T03:19:52.183Z,352
2022-10-02T03:20:22.543Z,348
2022-10-02T03:20:53.143Z,359
2022-10-02T03:21:24.133Z,332
2022-10-02T03:21:55.086Z,344
2022-10-02T03:22:26.152Z,350
2022-10-02T03:22:57.267Z,350
2022-10-02T03:23:28.293Z,345
2022-10-02T03:24:01.595Z,337
2022-10-02T03:24:31.652Z,350
2022-10-02T03:25:02.671Z,352
2022-10-02T03:25:32.364Z,353
2022-10-02T03:26:12.714Z,354
2022-10-02T03:26:34.450Z,353
2022-10-02T03:27:06.248Z,348
2022-10-02T03:27:35.945Z,347
2022-10-02T03:28:07.187Z,347
2022-10-02T03:28:55.086Z,350
2022-10-02T03:29:09.009Z,359
2022-10-02T03:29:41.606Z,357
2022-10-02T03:30:13.249Z,11
2022-10-02T03:30:42.738Z,359
2022-10-02T03:31:13.112Z,8
2022-10-02T03:31:44.334Z,6
2022-10-02T03:32:15.021Z,357
2022-10-02T03:32:46.198Z,345
2022-10-02T03:33:23.278Z,352
2022-10-02T03:33:48.265Z,352
2022-10-02T03:34:19.105Z,352
2022-10-02T03:34:52.132Z,354
2022-10-02T03:35:22.672Z,341
2022-10-02T03:35:53.186Z,356
2022-10-02T03:36:30.894Z,325
2022-10-02T03:36:54.155Z,341
2022-10-02T03:37:25.226Z,356
2022-10-02T03:37:56.140Z,6
2022-10-02T03:38:27.034Z,348
2022-10-02T03:39:20.289Z,339
2022-10-02T03:39:29.172Z,6
2022-10-02T03:40:02.070Z,355
2022-10-02T03:40:32.523Z,353
2022-10-02T03:41:02.770Z,355
2022-10-02T03:41:33.275Z,358
2022-10-02T03:42:04.298Z,14
2022-10-02T03:42:36.427Z,8
2022-10-02T03:43:06.024Z,342
2022-10-02T03:43:37.279Z,346
2022-10-02T03:44:12.776Z,350
2022-10-02T03:44:39.227Z,349
2022-10-02T03:45:27.305Z,335
2022-10-02T03:46:12.921Z,353
2022-10-02T03:46:43.449Z,8
2022-10-02T03:47:14.202Z,338
2022-10-02T03:47:45.241Z,334
2022-10-02T03:48:16.283Z,353
2022-10-02T03:48:47.116Z,358
2022-10-02T03:49:18.242Z,358
2022-10-02T03:49:49.228Z,341
2022-10-02T03:50:20.166Z,352
2022-10-02T03:50:52.681Z,303
2022-10-02T03:51:53.321Z,15
2022-10-02T03:52:24.285Z,319
2022-10-02T03:52:55.268Z,356
2022-10-02T03:53:26.015Z,350
2022-10-02T03:53:57.407Z,355
2022-10-02T03:54:28.267Z,356
2022-10-02T03:54:59.233Z,356
2022-10-02T03:55:32.305Z,356
2022-10-02T03:56:02.673Z,356
2022-10-02T03:56:33.127Z,356
2022-10-02T03:57:03.415Z,20
2022-10-02T03:57:34.337Z,348
2022-10-02T03:58:05.272Z,353
2022-10-02T03:58:36.065Z,16
2022-10-02T03:59:07.016Z,17
2022-10-02T03:59:38.336Z,17
2022-10-02T04:00:11.184Z,16
2022-10-02T04:00:40.430Z,16
2022-10-02T04:01:11.518Z,16
2022-10-02T04:01:45.591Z,21
2022-10-02T04:02:13.234Z,19
2022-10-02T04:02:44.291Z,19
2022-10-02T04:03:15.345Z,9
2022-10-02T04:03:47.772Z,1
2022-10-02T04:04:17.853Z,0
2022-10-02T04:04:48.737Z,0
2022-10-02T04:05:19.416Z,1
2022-10-02T04:05:50.328Z,4
2022-10-02T04:06:21.746Z,4
2022-10-02T04:06:52.452Z,4
2022-10-02T04:07:23.274Z,4
2022-10-02T04:08:07.955Z,4
2022-10-02T04:08:25.283Z,4
2022-10-02T04:08:57.520Z,356
2022-10-02T04:09:28.155Z,6
2022-10-02T04:09:59.275Z,6
2022-10-02T04:10:29.370Z,20
2022-10-02T04:11:01.150Z,19
2022-10-02T04:11:31.459Z,11
2022-10-02T04:12:02.684Z,358
2022-10-02T04:12:33.397Z,355
2022-10-02T04:13:04.493Z,27
2022-10-02T04:13:35.218Z,17
2022-10-02T04:14:07.539Z,12
2022-10-02T04:14:37.959Z,10
2022-10-02T04:15:09.538Z,5
2022-10-02T04:15:56.473Z,7
2022-10-02T04:16:10.645Z,7
2022-10-02T04:16:41.105Z,41
2022-10-02T04:17:12.467Z,20
2022-10-02T04:17:43.393Z,20
2022-10-02T04:18:14.293Z,19
2022-10-02T04:18:45.384Z,18
2022-10-02T04:19:17.797Z,7
2022-10-02T04:19:48.270Z,12
2022-10-02T04:20:19.183Z,15
2022-10-02T04:20:49.637Z,6
2022-10-02T04:21:20.305Z,6
2022-10-02T04:21:51.414Z,5
2022-10-02T04:22:22.462Z,5
2022-10-02T04:22:53.345Z,5
2022-10-02T04:23:24.490Z,2
2022-10-02T04:23:55.858Z,351
2022-10-02T04:24:43.557Z,0
2022-10-02T04:24:58.683Z,0
2022-10-02T04:25:28.992Z,1
2022-10-02T04:26:01.674Z,2
2022-10-02T04:26:30.232Z,353
2022-10-02T04:27:03.017Z,354
2022-10-02T04:27:32.915Z,354
2022-10-02T04:28:03.895Z,353
2022-10-02T04:28:34.716Z,353
2022-10-02T04:29:05.190Z,353
2022-10-02T04:29:37.184Z,347
2022-10-02T04:30:08.183Z,352
2022-10-02T04:30:38.537Z,4
2022-10-02T04:31:11.714Z,3
2022-10-02T04:31:41.251Z,3
2022-10-02T04:32:11.592Z,3
2022-10-02T04:32:42.768Z,2
2022-10-02T04:33:33.254Z,2
2022-10-02T04:33:44.511Z,2
2022-10-02T04:34:15.379Z,1
2022-10-02T04:34:48.127Z,1
2022-10-02T04:35:18.488Z,1
2022-10-02T04:35:49.338Z,1
2022-10-02T04:36:19.804Z,358
2022-10-02T04:36:50.548Z,358
2022-10-02T04:37:21.533Z,0
2022-10-02T04:38:09.809Z,0
2022-10-02T04:38:23.197Z,0
2022-10-02T04:38:54.437Z,0
2022-10-02T04:39:26.114Z,0
2022-10-02T04:39:57.841Z,0
2022-10-02T04:40:28.190Z,0
2022-10-02T04:40:58.420Z,0
2022-10-02T04:41:29.208Z,1
2022-10-02T04:42:00.296Z,1
2022-10-02T04:42:49.901Z,1
2022-10-02T04:43:02.776Z,1
2022-10-02T04:43:33.446Z,1
2022-10-02T04:44:04.629Z,359
2022-10-02T04:44:35.498Z,359
2022-10-02T04:45:08.312Z,359
2022-10-02T04:45:38.410Z,359
2022-10-02T04:46:08.584Z,0
2022-10-02T04:46:39.410Z,359
2022-10-02T04:47:10.466Z,359
2022-10-02T04:47:41.460Z,0
2022-10-02T04:48:12.465Z,0
2022-10-02T04:48:43.647Z,0
2022-10-02T04:49:14.273Z,0
2022-10-02T04:49:45.446Z,358
2022-10-02T04:50:17.484Z,358
2022-10-02T04:50:48.930Z,358
2022-10-02T04:51:18.900Z,358
2022-10-02T04:51:51.653Z,358
2022-10-02T04:52:20.647Z,358
2022-10-02T04:52:51.340Z,358
2022-10-02T04:53:22.848Z,358
2022-10-02T04:53:53.510Z,358
2022-10-02T04:54:24.242Z,358
2022-10-02T04:54:55.421Z,358
2022-10-02T04:55:27.834Z,359
2022-10-02T04:55:58.502Z,359
2022-10-02T04:56:28.816Z,358
2022-10-02T04:56:59.611Z,358
2022-10-02T04:57:30.430Z,358
2022-10-02T04:58:01.664Z,358
2022-10-02T04:58:33.338Z,358
2022-10-02T04:59:03.340Z,358
2022-10-02T04:59:34.440Z,358
2022-10-02T05:00:11.940Z,358
2022-10-02T05:00:37.869Z,358
2022-10-02T05:01:08.210Z,358
2022-10-02T05:01:38.416Z,358
2022-10-02T05:02:09.313Z,358
2022-10-02T05:02:43.491Z,358
2022-10-02T05:03:11.518Z,358
2022-10-02T05:03:43.800Z,358
2022-10-02T05:04:13.505Z,358
2022-10-02T05:06:35.449Z,358
2022-10-02T05:13:44.422Z,358
2022-10-02T05:14:47.548Z,358
2022-10-02T05:15:08.115Z,352
2022-10-02T05:15:37.568Z,358
2022-10-02T05:16:38.056Z,359
2022-10-02T05:17:08.684Z,358
2022-10-02T05:17:39.738Z,358
2022-10-02T05:18:14.579Z,359
2022-10-02T05:18:41.777Z,359
2022-10-02T05:19:12.707Z,358
2022-10-02T05:19:43.841Z,358
2022-10-02T05:20:15.859Z,358
2022-10-02T05:20:47.345Z,358
2022-10-02T05:21:17.314Z,358
2022-10-02T05:21:47.761Z,358
2022-10-02T05:22:18.820Z,358
2022-10-02T05:22:49.817Z,358
2022-10-02T05:23:20.632Z,358
2022-10-02T05:23:54.466Z,358
2022-10-02T05:24:22.646Z,358
2022-10-02T05:24:53.639Z,358
2022-10-02T05:25:25.034Z,358
2022-10-02T05:25:57.530Z,358
2022-10-02T05:26:27.467Z,358
2022-10-02T05:26:58.288Z,358
2022-10-02T05:27:47.179Z,358
2022-10-02T05:27:59.738Z,358
2022-10-02T05:28:30.836Z,358
2022-10-02T05:29:01.575Z,358
2022-10-02T05:29:32.713Z,358
2022-10-02T05:30:04.525Z,358
2022-10-02T05:30:36.116Z,358
2022-10-02T05:31:07.127Z,358
2022-10-02T05:31:37.601Z,358
2022-10-02T05:32:07.679Z,358
2022-10-02T05:32:38.813Z,358
2022-10-02T05:33:09.723Z,358
2022-10-02T05:33:43.651Z,358
2022-10-02T05:34:28.988Z,358
2022-10-02T05:34:42.799Z,358
2022-10-02T05:35:13.627Z,358
2022-10-02T05:35:44.743Z,358
2022-10-02T05:36:33.249Z,349
2022-10-02T05:36:47.678Z,349
2022-10-02T05:37:17.984Z,350
2022-10-02T05:37:48.730Z,350
2022-10-02T05:38:19.758Z,356
2022-10-02T05:38:50.446Z,2
2022-10-02T05:39:21.740Z,3
2022-10-02T05:39:52.569Z,3
2022-10-02T05:40:23.993Z,2
2022-10-02T05:40:54.826Z,2
2022-10-02T05:41:26.607Z,3
2022-10-02T05:41:58.314Z,3
2022-10-02T05:42:27.887Z,3
2022-10-02T05:42:59.948Z,3
2022-10-02T05:43:29.717Z,1
2022-10-02T05:44:01.238Z,1
2022-10-02T05:44:31.710Z,2
2022-10-02T05:45:20.602Z,2
2022-10-02T05:45:33.482Z,2
2022-10-02T05:46:04.546Z,2
2022-10-02T05:46:37.413Z,2
2022-10-02T05:47:07.896Z,6
2022-10-02T05:47:37.995Z,7
2022-10-02T05:48:08.851Z,9
2022-10-02T05:49:11.048Z,14
2022-10-02T05:49:59.158Z,6
2022-10-02T05:50:13.205Z,6
2022-10-02T05:50:43.796Z,6
2022-10-02T05:51:14.810Z,6
2022-10-02T05:51:47.207Z,6
2022-10-02T05:52:18.322Z,6
2022-10-02T05:52:48.123Z,6
2022-10-02T05:53:19.048Z,6
2022-10-02T05:53:50.558Z,6
2022-10-02T05:54:20.916Z,6
2022-10-02T05:54:51.839Z,6
2022-10-02T05:55:22.786Z,6
2022-10-02T05:55:53.749Z,0
2022-10-02T05:56:24.860Z,1
2022-10-02T05:56:57.229Z,1
2022-10-02T05:57:27.645Z,1
2022-10-02T05:57:58.287Z,2
2022-10-02T05:58:29.168Z,2
2022-10-02T05:58:59.767Z,2
2022-10-02T05:59:30.693Z,2
2022-10-02T06:00:18.971Z,2
2022-10-02T06:00:33.065Z,2
2022-10-02T06:01:04.438Z,2
2022-10-02T06:01:36.419Z,2
2022-10-02T06:02:07.527Z,2
2022-10-02T06:02:39.619Z,2
2022-10-02T06:03:08.942Z,2
2022-10-02T06:03:57.238Z,2
2022-10-02T06:04:10.427Z,2
2022-10-02T06:04:40.961Z,2
2022-10-02T06:05:12.423Z,4
2022-10-02T06:05:42.867Z,3
2022-10-02T06:06:14.072Z,332
2022-10-02T06:06:44.776Z,355
2022-10-02T06:07:16.146Z,355
2022-10-02T06:08:18.660Z,355
2022-10-02T06:08:49.119Z,4
2022-10-02T06:09:20.576Z,6
2022-10-02T06:09:50.920Z,15
2022-10-02T06:10:21.598Z,15
2022-10-02T06:10:52.737Z,14
2022-10-02T06:11:23.550Z,14
2022-10-02T06:11:54.726Z,14
2022-10-02T06:12:26.163Z,14
2022-10-02T06:12:58.392Z,14
2022-10-02T06:13:28.779Z,14
2022-10-02T06:13:59.107Z,13
2022-10-02T06:14:30.073Z,13
2022-10-02T06:15:01.807Z,14
2022-10-02T06:15:31.721Z,13
2022-10-02T06:16:02.909Z,13
2022-10-02T06:16:34.359Z,13
2022-10-02T06:17:05.182Z,13
2022-10-02T06:17:53.379Z,14
2022-10-02T06:18:08.697Z,14
2022-10-02T06:18:38.474Z,14
2022-10-02T06:19:09.612Z,14
2022-10-02T06:19:40.025Z,14
2022-10-02T06:20:11.670Z,14
2022-10-02T06:20:44.635Z,14
2022-10-02T06:21:17.080Z,14
2022-10-02T06:21:44.022Z,14
2022-10-02T06:22:14.691Z,14
2022-10-02T06:22:46.404Z,14
2022-10-02T06:23:21.537Z,14
2022-10-02T06:23:48.557Z,14
2022-10-02T06:24:19.046Z,14
2022-10-02T06:24:50.026Z,14
2022-10-02T06:25:51.947Z,13
2022-10-02T06:26:22.953Z,13
2022-10-02T06:27:11.562Z,13
2022-10-02T06:27:24.710Z,13
2022-10-02T06:27:56.367Z,13
2022-10-02T06:28:28.405Z,13
2022-10-02T06:28:58.814Z,13
2022-10-02T06:29:29.028Z,13
2022-10-02T06:29:59.753Z,13
2022-10-02T06:30:32.567Z,13
2022-10-02T06:31:01.796Z,13
2022-10-02T06:31:32.929Z,13
2022-10-02T06:32:04.404Z,13
2022-10-02T06:32:35.381Z,13
2022-10-02T06:33:24.367Z,13
2022-10-02T06:33:38.437Z,13
2022-10-02T06:34:09.017Z,13
2022-10-02T06:34:39.295Z,13
2022-10-02T06:35:10.322Z,13
2022-10-02T06:35:41.069Z,13
2022-10-02T06:36:12.236Z,13
2022-10-02T06:36:43.087Z,13
2022-10-02T06:37:13.747Z,13
2022-10-02T06:37:44.779Z,13
2022-10-02T06:38:16.362Z,13
2022-10-02T06:38:48.456Z,13
2022-10-02T06:39:19.067Z,12
2022-10-02T06:39:49.423Z,358
2022-10-02T06:40:20.447Z,3
2022-10-02T06:40:51.097Z,7
2022-10-02T06:41:22.010Z,343
2022-10-02T06:41:52.759Z,20
2022-10-02T06:42:25.036Z,20
2022-10-02T06:42:54.737Z,14
2022-10-02T06:43:26.507Z,14
2022-10-02T06:43:58.946Z,352
2022-10-02T06:44:29.660Z,352
2022-10-02T06:44:59.100Z,352
2022-10-02T06:45:30.668Z,21
2022-10-02T06:46:01.073Z,359
2022-10-02T06:46:39.047Z,1
2022-10-02T06:47:03.455Z,1
2022-10-02T06:47:33.744Z,1
2022-10-02T06:48:06.785Z,1
2022-10-02T06:48:36.071Z,30
2022-10-02T06:49:07.253Z,29
2022-10-02T06:49:38.619Z,29
2022-10-02T06:50:09.492Z,8
2022-10-02T06:50:40.182Z,21
2022-10-02T06:51:11.455Z,20
2022-10-02T06:52:13.476Z,10
2022-10-02T06:52:44.042Z,10
2022-10-02T06:53:15.075Z,12
2022-10-02T06:53:45.806Z,12
2022-10-02T06:54:18.189Z,11
2022-10-02T06:54:49.068Z,13
2022-10-02T06:55:19.401Z,343
2022-10-02T06:55:49.993Z,4
2022-10-02T06:56:21.005Z,5
2022-10-02T06:56:51.784Z,4
2022-10-02T06:57:23.028Z,6
2022-10-02T06:57:54.202Z,356
2022-10-02T06:58:25.068Z,358
2022-10-02T06:58:56.129Z,15
2022-10-02T06:59:28.507Z,15
2022-10-02T06:59:59.678Z,15
2022-10-02T07:00:29.987Z,51
2022-10-02T07:01:00.082Z,9
2022-10-02T07:02:02.346Z,8
2022-10-02T07:02:33.042Z,6
2022-10-02T07:03:04.195Z,32
2022-10-02T07:03:35.088Z,354
2022-10-02T07:04:06.069Z,20
2022-10-02T07:04:38.995Z,8
2022-10-02T07:05:09.618Z,11
2022-10-02T07:05:40.492Z,9
2022-10-02T07:06:10.422Z,9
2022-10-02T07:06:50.266Z,358
2022-10-02T07:11:02.613Z,1
2022-10-02T07:11:37.458Z,1
2022-10-02T07:12:18.066Z,352
2022-10-02T07:12:40.311Z,350
2022-10-02T07:12:54.320Z,350
2022-10-02T07:13:27.255Z,7
2022-10-02T07:13:54.957Z,346
2022-10-02T07:14:26.010Z,331
2022-10-02T07:14:57.101Z,348
2022-10-02T07:15:29.522Z,346
2022-10-02T07:16:01.452Z,0
2022-10-02T07:16:30.845Z,341
2022-10-02T07:17:01.408Z,0
2022-10-02T07:17:31.924Z,353
2022-10-02T07:18:20.886Z,350
2022-10-02T07:18:34.154Z,350
2022-10-02T07:19:05.052Z,352
2022-10-02T07:19:36.036Z,355
2022-10-02T07:20:07.370Z,19
2022-10-02T07:20:38.617Z,356
2022-10-02T07:21:11.443Z,350
2022-10-02T07:22:39.669Z,316
2022-10-02T07:23:13.235Z,355
2022-10-02T07:23:44.193Z,0
2022-10-02T07:24:15.023Z,0
2022-10-02T07:24:46.033Z,343
2022-10-02T07:25:17.441Z,349
2022-10-02T07:25:48.065Z,10
2022-10-02T07:26:20.781Z,33
2022-10-02T07:26:52.849Z,351
2022-10-02T07:27:52.032Z,306
2022-10-02T07:28:23.102Z,339
2022-10-02T07:28:53.921Z,341
2022-10-02T07:29:25.154Z,343
2022-10-02T07:29:56.157Z,355
2022-10-02T07:30:27.930Z,349
2022-10-02T07:30:59.198Z,326
2022-10-02T07:31:31.414Z,343
2022-10-02T07:32:01.661Z,344
2022-10-02T07:32:31.543Z,344
2022-10-02T07:33:02.297Z,354
2022-10-02T07:33:40.897Z,357
2022-10-02T07:34:04.047Z,353
2022-10-02T07:34:35.037Z,353
2022-10-02T07:35:06.648Z,4
2022-10-02T07:35:37.147Z,345
2022-10-02T07:36:09.656Z,357
2022-10-02T07:36:40.497Z,322
2022-10-02T07:37:11.227Z,355
2022-10-02T07:37:41.419Z,350
2022-10-02T07:38:13.178Z,350
2022-10-02T07:38:43.090Z,39
2022-10-02T07:39:14.365Z,314
2022-10-02T07:39:45.067Z,351
2022-10-02T07:40:17.003Z,352
2022-10-02T07:40:47.288Z,345
2022-10-02T07:41:18.089Z,345
2022-10-02T07:41:51.157Z,340